createdAt,value
2017-07-12T00:02:06.122Z,68.80
2017-07-12T00:04:34.719Z,69.10
2017-07-12T00:07:03.621Z,60.80
2017-07-12T00:09:32.418Z,75.10
2017-07-12T00:12:01.119Z,71.13
2017-07-12T00:14:29.879Z,64.10
2017-07-12T00:16:58.199Z,71.13
2017-07-12T00:19:26.835Z,59.20
2017-07-12T00:21:55.457Z,67.00
2017-07-12T00:24:24.305Z,70.63
2017-07-12T00:26:53.009Z,69.60
2017-07-12T00:29:21.858Z,60.93
2017-07-12T00:31:50.849Z,67.00
2017-07-12T00:34:19.610Z,59.93
2017-07-12T00:36:48.150Z,80.77
2017-07-12T00:39:17.834Z,64.10
2017-07-12T00:41:46.594Z,67.43
2017-07-12T00:44:15.139Z,60.33
2017-07-12T00:46:44.070Z,59.70
2017-07-12T00:49:12.923Z,61.17
2017-07-12T00:51:41.606Z,72.60
2017-07-12T00:54:10.605Z,65.07
2017-07-12T00:56:39.375Z,69.67
2017-07-12T00:59:08.902Z,68.03
2017-07-12T01:01:37.795Z,68.60
2017-07-12T01:04:06.493Z,71.13
2017-07-12T01:06:35.384Z,52.27
2017-07-12T01:09:04.581Z,62.90
2017-07-12T01:11:33.328Z,55.80
2017-07-12T01:14:01.833Z,64.00
2017-07-12T01:16:31.626Z,57.43
2017-07-12T01:19:00.517Z,73.33
2017-07-12T01:21:29.362Z,62.70
2017-07-12T01:23:57.741Z,56.50
2017-07-12T01:26:26.414Z,53.23
2017-07-12T01:28:55.310Z,52.80
2017-07-12T01:31:24.301Z,57.70
2017-07-12T01:33:53.153Z,53.07
2017-07-12T01:36:21.893Z,64.23
2017-07-12T01:38:50.586Z,50.17
2017-07-12T01:41:19.237Z,43.03
2017-07-12T01:43:47.483Z,52.93
2017-07-12T01:46:16.190Z,59.40
2017-07-12T01:48:45.789Z,56.57
2017-07-12T01:51:14.458Z,66.43
2017-07-12T01:53:43.233Z,48.67
2017-07-12T01:56:11.986Z,69.27
2017-07-12T01:58:40.781Z,57.50
2017-07-12T02:01:09.037Z,63.60
2017-07-12T02:03:38.478Z,62.27
2017-07-12T02:06:06.741Z,57.80
2017-07-12T02:08:35.621Z,79.73
2017-07-12T02:11:04.365Z,75.57
2017-07-12T02:13:33.173Z,71.53
2017-07-12T02:16:02.065Z,90.07
2017-07-12T02:18:31.009Z,59.70
2017-07-12T02:20:59.637Z,72.83
2017-07-12T02:23:28.299Z,65.97
2017-07-12T02:25:56.946Z,72.90
2017-07-12T02:28:25.121Z,59.13
2017-07-12T02:30:54.770Z,67.97
2017-07-12T02:33:23.693Z,57.57
2017-07-12T02:35:52.640Z,68.30
2017-07-12T02:38:21.325Z,56.67
2017-07-12T02:40:49.989Z,53.23
2017-07-12T02:43:18.118Z,55.70
2017-07-12T02:45:46.841Z,72.53
2017-07-12T02:48:16.589Z,72.53
2017-07-12T02:50:45.483Z,56.20
2017-07-12T02:53:14.350Z,57.57
2017-07-12T02:55:43.182Z,49.73
2017-07-12T02:58:12.821Z,55.17
2017-07-12T03:00:41.472Z,62.10
2017-07-12T03:03:10.125Z,52.40
2017-07-12T03:05:38.717Z,66.73
2017-07-12T03:08:07.674Z,62.13
2017-07-12T03:10:36.566Z,58.93
2017-07-12T03:13:04.821Z,72.13
2017-07-12T03:15:33.125Z,64.20
2017-07-12T03:18:02.013Z,106.53
2017-07-12T03:20:30.905Z,99.10
2017-07-12T03:23:00.005Z,118.97
2017-07-12T03:25:28.222Z,116.60
2017-07-12T03:27:57.001Z,119.90
2017-07-12T03:30:25.350Z,141.87
2017-07-12T03:32:53.936Z,183.20
2017-07-12T03:35:22.130Z,190.37
2017-07-12T03:37:51.145Z,248.57
2017-07-12T03:40:20.046Z,234.47
2017-07-12T03:42:48.854Z,246.80
2017-07-12T03:45:17.597Z,363.40
2017-07-12T03:47:46.285Z,332.83
2017-07-12T03:50:15.718Z,357.90
2017-07-12T03:52:43.975Z,427.03
2017-07-12T03:55:12.325Z,349.07
2017-07-12T03:57:40.930Z,388.67
2017-07-12T04:00:10.446Z,319.20
2017-07-12T04:02:39.134Z,371.77
2017-07-12T04:05:07.909Z,342.30
2017-07-12T04:07:36.216Z,292.20
2017-07-12T04:10:05.028Z,320.83
2017-07-12T04:12:33.560Z,266.00
2017-07-12T04:15:03.352Z,315.23
2017-07-12T04:17:32.249Z,308.43
2017-07-12T04:20:00.753Z,376.17
2017-07-12T04:22:29.446Z,365.63
2017-07-12T04:24:58.441Z,371.77
2017-07-12T04:27:27.230Z,330.10
2017-07-12T04:29:56.138Z,366.63
2017-07-12T04:32:24.986Z,354.53
2017-07-12T04:34:53.833Z,340.30
2017-07-12T04:37:22.873Z,343.90
2017-07-12T04:39:51.455Z,360.27
2017-07-12T04:42:20.122Z,284.83
2017-07-12T04:44:49.065Z,293.07
2017-07-12T04:47:17.851Z,240.80
2017-07-12T04:49:46.717Z,281.10
2017-07-12T04:52:15.714Z,229.33
2017-07-12T04:54:44.658Z,284.60
2017-07-12T04:57:12.963Z,256.93
2017-07-12T04:59:41.802Z,297.90
2017-07-12T05:02:10.714Z,247.30
2017-07-12T05:04:39.458Z,264.50
2017-07-12T05:07:07.802Z,271.93
2017-07-12T05:09:35.969Z,262.43
2017-07-12T05:12:04.150Z,280.30
2017-07-12T05:14:32.902Z,304.33
2017-07-12T05:17:01.794Z,298.57
2017-07-12T05:19:30.597Z,331.67
2017-07-12T05:21:59.590Z,318.10
2017-07-12T05:24:27.761Z,384.00
2017-07-12T05:26:56.380Z,278.83
2017-07-12T05:29:24.747Z,357.53
2017-07-12T05:31:53.366Z,361.50
2017-07-12T05:34:21.989Z,353.37
2017-07-12T05:36:50.877Z,384.90
2017-07-12T05:39:20.329Z,469.13
2017-07-12T05:41:49.109Z,475.07
2017-07-12T05:44:17.473Z,467.83
2017-07-12T05:46:46.375Z,533.60
2017-07-12T05:49:14.874Z,552.33
2017-07-12T05:51:43.763Z,513.60
2017-07-12T05:54:12.511Z,466.03
2017-07-12T05:56:41.209Z,480.50
2017-07-12T05:59:09.702Z,390.17
2017-07-12T06:01:37.870Z,433.83
2017-07-12T06:04:06.659Z,394.63
2017-07-12T06:06:35.654Z,414.13
2017-07-12T06:09:04.645Z,312.20
2017-07-12T06:11:33.453Z,309.33
2017-07-12T06:14:02.282Z,260.63
2017-07-12T06:16:30.536Z,290.93
2017-07-12T06:18:58.761Z,246.90
2017-07-12T06:21:28.482Z,264.60
2017-07-12T06:23:57.385Z,232.37
2017-07-12T06:26:26.383Z,227.83
2017-07-12T06:28:55.363Z,252.47
2017-07-12T06:31:24.125Z,264.97
2017-07-12T06:33:52.867Z,255.17
2017-07-12T06:36:21.603Z,161.60
2017-07-12T06:38:50.255Z,193.77
2017-07-12T06:41:19.119Z,227.93
2017-07-12T06:43:48.010Z,207.45
2017-07-12T06:46:16.914Z,230.68
2017-07-12T06:48:45.722Z,188.05
2017-07-12T06:51:14.498Z,168.65
2017-07-12T06:53:43.198Z,133.65
2017-07-12T06:56:11.846Z,153.68
2017-07-12T06:58:40.645Z,173.43
2017-07-12T07:01:08.962Z,177.25
2017-07-12T07:03:37.599Z,156.00
2017-07-12T07:06:06.489Z,184.73
2017-07-12T07:08:35.299Z,143.50
2017-07-12T07:11:04.147Z,180.87
2017-07-12T07:13:33.281Z,144.80
2017-07-12T07:16:02.256Z,141.32
2017-07-12T07:18:31.661Z,154.87
2017-07-12T07:21:01.198Z,147.97
2017-07-12T07:23:29.861Z,148.85
2017-07-12T07:25:58.666Z,158.13
2017-07-12T07:28:27.014Z,148.98
2017-07-12T07:30:56.614Z,151.40
2017-07-12T07:33:24.793Z,150.07
2017-07-12T07:35:54.602Z,161.20
2017-07-12T07:38:23.442Z,176.87
2017-07-12T07:40:52.079Z,153.23
2017-07-12T07:43:20.890Z,141.50
2017-07-12T07:45:50.194Z,175.77
2017-07-12T07:48:19.726Z,133.48
2017-07-12T07:50:48.597Z,164.40
2017-07-12T07:53:16.785Z,190.77
2017-07-12T07:55:44.994Z,147.57
2017-07-12T07:58:13.757Z,151.05
2017-07-12T08:00:42.422Z,135.05
2017-07-12T08:03:11.311Z,144.50
2017-07-12T08:05:40.858Z,159.50
2017-07-12T08:08:09.503Z,126.28
2017-07-12T08:10:38.818Z,135.37
2017-07-12T08:13:07.640Z,139.90
2017-07-12T08:15:36.390Z,125.27
2017-07-12T08:18:05.191Z,106.50
2017-07-12T08:20:33.557Z,114.23
2017-07-12T08:23:02.082Z,114.47
2017-07-12T08:25:30.826Z,130.80
2017-07-12T08:27:59.826Z,112.83
2017-07-12T08:30:28.631Z,109.15
2017-07-12T08:32:57.599Z,104.38
2017-07-12T08:35:26.005Z,138.00
2017-07-12T08:37:54.673Z,130.35
2017-07-12T08:40:23.981Z,123.28
2017-07-12T08:42:52.852Z,109.72
2017-07-12T08:45:20.998Z,127.35
2017-07-12T08:47:49.865Z,144.68
2017-07-12T08:50:18.610Z,144.43
2017-07-12T08:52:48.246Z,130.98
2017-07-12T08:55:16.482Z,166.57
2017-07-12T08:57:45.241Z,164.73
2017-07-12T09:00:13.890Z,168.97
2017-07-12T09:02:42.686Z,152.27
2017-07-12T09:05:11.163Z,140.73
2017-07-12T09:07:39.341Z,158.65
2017-07-12T09:10:08.138Z,155.23
2017-07-12T09:12:37.089Z,193.10
2017-07-12T09:15:06.522Z,154.77
2017-07-12T09:17:35.327Z,149.97
2017-07-12T09:20:03.617Z,155.23
2017-07-12T09:22:32.316Z,160.53
2017-07-12T09:34:56.254Z,183.27
2017-07-12T09:37:25.021Z,162.43
2017-07-12T09:39:53.706Z,182.17
2017-07-12T09:42:22.593Z,163.87
2017-07-12T09:44:51.398Z,159.00
2017-07-12T09:47:20.198Z,168.80
2017-07-12T09:49:48.864Z,151.80
2017-07-12T09:52:17.485Z,156.70
2017-07-12T09:54:46.139Z,152.10
2017-07-12T09:57:14.489Z,164.57
2017-07-12T09:59:43.035Z,158.90
2017-07-12T10:02:11.682Z,140.03
2017-07-12T10:04:40.585Z,136.60
2017-07-12T10:07:09.540Z,187.43
2017-07-12T10:09:38.404Z,148.43
2017-07-12T10:12:07.074Z,155.13
2017-07-12T10:14:35.734Z,170.67
2017-07-12T10:17:04.434Z,172.13
2017-07-12T10:19:32.709Z,164.07
2017-07-12T10:22:01.281Z,174.97
2017-07-12T10:24:29.965Z,155.50
2017-07-12T10:26:58.283Z,181.43
2017-07-12T10:29:26.983Z,189.53
2017-07-12T10:31:55.616Z,202.97
2017-07-12T10:34:25.061Z,189.57
2017-07-12T10:36:53.709Z,177.83
2017-07-12T10:39:22.514Z,168.53
2017-07-12T10:41:51.510Z,184.13
2017-07-12T10:44:19.741Z,169.00
2017-07-12T10:46:48.374Z,179.97
2017-07-12T10:49:16.754Z,176.10
2017-07-12T10:51:45.706Z,155.60
2017-07-12T10:54:14.219Z,169.63
2017-07-12T10:56:42.941Z,166.97
2017-07-12T10:59:11.810Z,171.07
2017-07-12T11:01:40.557Z,170.03
2017-07-12T11:04:09.553Z,175.47
2017-07-12T11:06:38.977Z,161.57
2017-07-12T11:09:08.737Z,187.73
2017-07-12T11:11:37.465Z,164.30
2017-07-12T11:14:07.119Z,170.30
2017-07-12T11:16:35.746Z,217.13
2017-07-12T11:19:04.613Z,191.53
2017-07-12T11:21:32.826Z,183.20
2017-07-12T11:24:02.353Z,172.37
2017-07-12T11:26:31.145Z,164.23
2017-07-12T11:28:59.322Z,152.20
2017-07-12T11:31:27.937Z,136.60
2017-07-12T11:33:56.794Z,174.00
2017-07-12T11:36:25.803Z,153.13
2017-07-12T11:38:54.554Z,174.00
2017-07-12T11:41:23.545Z,149.20
2017-07-12T11:43:52.304Z,147.13
2017-07-12T11:46:20.893Z,161.90
2017-07-12T11:48:49.784Z,151.57
2017-07-12T11:51:17.970Z,167.03
2017-07-12T11:53:46.602Z,138.07
2017-07-12T11:56:15.481Z,171.93
2017-07-12T11:58:45.126Z,143.17
2017-07-12T12:01:13.771Z,173.87
2017-07-12T12:03:43.513Z,162.00
2017-07-12T12:06:11.686Z,129.83
2017-07-12T12:08:39.906Z,164.37
2017-07-12T12:11:09.363Z,153.40
2017-07-12T12:13:38.065Z,155.23
2017-07-12T12:16:06.914Z,121.97
2017-07-12T12:18:35.273Z,125.07
2017-07-12T12:21:03.998Z,135.63
2017-07-12T12:23:33.385Z,142.13
2017-07-12T12:26:02.286Z,128.23
2017-07-12T12:28:32.774Z,160.13
2017-07-12T12:31:01.010Z,141.30
2017-07-12T12:33:30.077Z,129.30
2017-07-12T12:35:59.022Z,150.73
2017-07-12T12:38:27.285Z,146.23
2017-07-12T12:40:56.253Z,137.67
2017-07-12T12:43:24.610Z,138.73
2017-07-12T12:45:55.978Z,136.87
2017-07-12T12:48:27.385Z,132.30
2017-07-12T12:50:57.424Z,136.60
2017-07-12T12:53:26.615Z,138.47
2017-07-12T12:55:58.673Z,142.03
2017-07-12T12:58:28.462Z,142.03
2017-07-12T13:00:58.350Z,126.73
2017-07-12T13:03:30.713Z,120.87
2017-07-12T13:06:01.052Z,127.50
2017-07-12T13:08:30.705Z,122.33
2017-07-12T13:11:00.881Z,113.37
2017-07-12T13:13:30.386Z,122.20
2017-07-12T13:16:00.709Z,126.13
2017-07-12T13:18:32.034Z,130.10
2017-07-12T13:21:01.805Z,118.37
2017-07-12T13:23:30.407Z,120.50
2017-07-12T13:26:00.030Z,100.07
2017-07-12T13:28:29.150Z,98.23
2017-07-12T13:30:58.352Z,107.23
2017-07-12T13:46:24.742Z,116.90
2017-07-12T13:48:54.281Z,104.43
2017-07-12T13:51:22.896Z,99.77
2017-07-12T13:53:52.340Z,102.13
2017-07-12T13:56:20.541Z,129.27
2017-07-12T13:58:48.753Z,120.87
2017-07-12T14:01:17.013Z,100.10
2017-07-12T14:03:46.374Z,115.43
2017-07-12T14:06:15.217Z,99.63
2017-07-12T14:08:44.656Z,104.87
2017-07-12T14:11:12.833Z,116.17
2017-07-12T14:13:41.912Z,98.47
2017-07-12T14:16:10.777Z,102.03
2017-07-12T14:18:40.294Z,103.40
2017-07-12T14:21:09.697Z,102.10
2017-07-12T14:23:39.491Z,95.13
2017-07-12T14:26:08.250Z,95.87
2017-07-12T14:28:36.889Z,91.10
2017-07-12T14:31:05.825Z,92.50
2017-07-12T14:33:34.518Z,102.80
2017-07-12T14:36:03.174Z,90.07
2017-07-12T14:38:32.177Z,116.03
2017-07-12T14:41:00.970Z,91.03
2017-07-12T14:43:29.775Z,84.10
2017-07-12T14:45:59.553Z,89.53
2017-07-12T14:48:27.765Z,101.20
2017-07-12T14:50:56.304Z,92.23
2017-07-12T14:53:25.798Z,92.07
2017-07-12T14:55:55.346Z,77.83
2017-07-12T14:58:23.957Z,65.17
2017-07-12T15:00:52.638Z,70.40
2017-07-12T15:03:21.273Z,87.40
2017-07-12T15:05:50.681Z,79.40
2017-07-12T15:08:19.470Z,70.57
2017-07-12T15:10:48.173Z,91.40
2017-07-12T15:13:17.078Z,81.53
2017-07-12T15:15:46.261Z,84.77
2017-07-12T15:18:14.430Z,74.27
2017-07-12T15:20:43.209Z,73.53
2017-07-12T15:23:12.649Z,70.23
2017-07-12T15:25:41.353Z,69.53
2017-07-12T15:28:10.114Z,61.40
2017-07-12T15:30:38.474Z,87.73
2017-07-12T15:33:07.166Z,61.03
2017-07-12T15:35:35.850Z,86.87
2017-07-12T15:38:05.392Z,85.80
2017-07-12T15:40:34.141Z,74.23
2017-07-12T15:43:03.781Z,71.43
2017-07-12T15:45:32.199Z,77.53
2017-07-12T15:48:00.917Z,80.07
2017-07-12T15:50:29.182Z,59.20
2017-07-12T15:52:57.921Z,87.20
2017-07-12T15:55:26.619Z,80.17
2017-07-12T15:57:55.365Z,81.73
2017-07-12T16:00:24.269Z,83.57
2017-07-12T16:02:53.025Z,73.13
2017-07-12T16:05:21.762Z,71.87
2017-07-12T16:07:50.453Z,79.17
2017-07-12T16:10:19.153Z,71.10
2017-07-12T16:12:47.903Z,67.70
2017-07-12T16:15:16.234Z,89.40
2017-07-12T16:17:44.923Z,96.50
2017-07-12T16:20:13.593Z,71.13
2017-07-12T16:22:42.559Z,74.50
2017-07-12T16:25:11.455Z,79.27
2017-07-12T16:27:40.869Z,86.43
2017-07-12T16:30:09.845Z,71.43
2017-07-12T16:32:38.639Z,82.53
2017-07-12T16:35:07.443Z,69.67
2017-07-12T16:37:35.766Z,98.40
2017-07-12T16:40:04.586Z,82.27
2017-07-12T16:42:33.287Z,75.67
2017-07-12T16:45:02.241Z,83.00
2017-07-12T16:47:30.646Z,72.40
2017-07-12T16:50:00.281Z,89.53
2017-07-12T16:52:29.279Z,64.67
2017-07-12T16:54:57.501Z,88.27
2017-07-12T16:57:26.222Z,98.53
2017-07-12T16:59:55.279Z,96.37
2017-07-12T17:02:24.145Z,79.00
2017-07-12T17:04:53.086Z,68.63
2017-07-12T17:07:22.649Z,84.80
2017-07-12T17:09:51.405Z,79.70
2017-07-12T17:12:20.257Z,106.90
2017-07-12T17:14:49.298Z,101.57
2017-07-12T17:17:18.113Z,81.87
2017-07-12T17:19:46.937Z,99.07
2017-07-12T17:22:16.680Z,83.37
2017-07-12T17:24:45.537Z,75.03
2017-07-12T17:27:14.381Z,92.33
2017-07-12T17:29:43.084Z,80.67
2017-07-12T17:32:11.346Z,98.10
2017-07-12T17:34:39.561Z,75.73
2017-07-12T17:37:08.512Z,77.47
2017-07-12T17:39:37.181Z,81.47
2017-07-12T17:42:05.837Z,92.63
2017-07-12T17:44:34.830Z,76.70
2017-07-12T17:47:03.588Z,72.60
2017-07-12T17:49:32.129Z,87.23
2017-07-12T17:52:01.812Z,84.73
2017-07-12T17:54:30.657Z,76.30
2017-07-12T17:56:59.214Z,92.70
2017-07-12T17:59:28.901Z,81.83
2017-07-12T18:01:57.741Z,76.20
2017-07-12T18:04:26.372Z,77.47
2017-07-12T18:06:55.134Z,85.83
2017-07-12T18:09:23.777Z,97.57
2017-07-12T18:11:53.178Z,88.00
2017-07-12T18:14:21.534Z,84.30
2017-07-12T18:16:50.329Z,92.80
2017-07-12T18:19:18.450Z,78.37
2017-07-12T18:21:47.419Z,84.43
2017-07-12T18:24:16.225Z,86.90
2017-07-12T18:26:44.975Z,96.23
2017-07-12T18:29:13.688Z,104.33
2017-07-12T18:31:42.377Z,90.67
2017-07-12T18:34:10.853Z,68.77
2017-07-12T18:36:40.446Z,76.53
2017-07-12T18:39:10.001Z,96.70
2017-07-12T18:41:38.890Z,93.60
2017-07-12T18:44:07.585Z,93.93
2017-07-12T18:46:36.174Z,83.30
2017-07-12T18:49:04.826Z,90.53
2017-07-12T18:51:33.833Z,82.60
2017-07-12T18:54:01.969Z,103.63
2017-07-12T18:56:30.621Z,89.40
2017-07-12T18:58:59.569Z,78.50
2017-07-12T19:01:28.873Z,71.93
2017-07-12T19:03:58.406Z,79.30
2017-07-12T19:06:27.174Z,87.17
2017-07-12T19:08:55.694Z,69.60
2017-07-12T19:11:24.450Z,92.50
2017-07-12T19:13:53.353Z,83.43
2017-07-12T19:16:22.301Z,87.40
2017-07-12T19:18:50.546Z,68.27
2017-07-12T19:21:19.337Z,74.43
2017-07-12T19:23:48.184Z,85.63
2017-07-12T19:26:17.535Z,78.30
2017-07-12T19:28:46.378Z,86.10
2017-07-12T19:31:15.192Z,94.60
2017-07-12T19:33:44.141Z,83.63
2017-07-12T19:36:12.856Z,84.57
2017-07-12T19:38:41.375Z,96.27
2017-07-12T19:41:10.125Z,89.80
2017-07-12T19:43:39.126Z,76.83
2017-07-12T19:46:07.817Z,72.60
2017-07-12T19:48:36.623Z,79.30
2017-07-12T19:51:05.429Z,86.03
2017-07-12T19:53:34.077Z,77.87
2017-07-12T19:56:02.767Z,58.30
2017-07-12T19:58:31.562Z,72.43
2017-07-12T20:01:00.366Z,67.93
2017-07-12T20:03:28.997Z,69.33
2017-07-12T20:05:57.754Z,56.63
2017-07-12T20:08:26.398Z,70.83
2017-07-12T20:10:55.747Z,67.80
2017-07-12T20:13:24.105Z,76.90
2017-07-12T20:15:53.019Z,89.90
2017-07-12T20:18:21.349Z,68.80
2017-07-12T20:20:51.213Z,71.70
2017-07-12T20:23:20.105Z,78.87
2017-07-12T20:25:48.485Z,81.03
2017-07-12T20:28:17.369Z,68.17
2017-07-12T20:30:46.170Z,69.87
2017-07-12T20:33:15.058Z,76.17
2017-07-12T20:35:43.441Z,91.87
2017-07-12T20:38:11.965Z,56.47
2017-07-12T20:40:41.640Z,63.97
2017-07-12T20:43:10.423Z,68.77
2017-07-12T20:45:39.830Z,58.93
2017-07-12T20:48:08.033Z,63.80
2017-07-12T20:50:36.321Z,63.97
2017-07-12T20:53:05.781Z,56.17
2017-07-12T20:55:34.481Z,62.37
2017-07-12T20:58:03.524Z,73.43
2017-07-12T21:00:32.968Z,62.87
2017-07-12T21:03:01.745Z,92.33
2017-07-12T21:05:30.049Z,79.37
2017-07-12T21:07:58.674Z,67.77
2017-07-12T21:10:27.986Z,73.13
2017-07-12T21:12:56.718Z,81.43
2017-07-12T21:15:24.865Z,69.73
2017-07-12T21:17:53.433Z,61.77
2017-07-12T21:20:22.366Z,71.87
2017-07-12T21:22:51.105Z,65.10
2017-07-12T21:25:20.409Z,77.13
2017-07-12T21:27:50.097Z,79.33
2017-07-12T21:30:18.942Z,71.40
2017-07-12T21:32:47.552Z,76.07
2017-07-12T21:35:15.939Z,79.07
2017-07-12T21:37:44.593Z,70.57
2017-07-12T21:40:13.158Z,86.37
2017-07-12T21:42:41.442Z,89.37
2017-07-12T21:45:10.350Z,77.67
2017-07-12T21:47:39.241Z,84.00
2017-07-12T21:50:08.022Z,73.50
2017-07-12T21:52:36.689Z,81.70
2017-07-12T21:55:23.344Z,74.70
2017-07-12T21:58:10.053Z,75.90
2017-07-12T22:00:56.149Z,84.43
2017-07-12T22:03:42.860Z,94.03
2017-07-12T22:06:29.466Z,93.83
2017-07-12T22:09:16.074Z,95.30
2017-07-12T22:12:03.090Z,91.03
2017-07-12T22:14:49.903Z,90.67
2017-07-12T22:17:36.282Z,81.37
2017-07-12T22:20:22.298Z,71.70
2017-07-12T22:23:09.110Z,90.07
2017-07-12T22:25:55.924Z,77.43
2017-07-12T22:28:42.838Z,79.63
2017-07-12T22:31:28.082Z,75.87
2017-07-12T22:34:14.314Z,81.50
2017-07-12T22:37:00.920Z,74.50
2017-07-12T22:39:34.973Z,72.83
2017-07-12T22:42:09.685Z,73.07
2017-07-12T22:44:38.303Z,75.37
2017-07-12T22:47:06.529Z,75.17
2017-07-12T22:49:35.170Z,83.40
2017-07-12T22:52:03.905Z,70.03
2017-07-12T22:54:32.542Z,102.40
2017-07-12T22:57:01.310Z,79.00
2017-07-12T22:59:30.197Z,76.10
2017-07-12T23:01:58.741Z,80.83
2017-07-12T23:04:27.431Z,83.47
2017-07-12T23:06:56.287Z,74.33
2017-07-12T23:09:24.984Z,81.07
2017-07-12T23:11:53.942Z,82.87
2017-07-12T23:14:23.037Z,84.87
2017-07-12T23:16:52.277Z,78.30
2017-07-12T23:19:22.061Z,83.93
2017-07-12T23:21:52.915Z,80.97
2017-07-12T23:24:22.813Z,68.67
2017-07-12T23:26:53.798Z,77.40
2017-07-12T23:29:24.113Z,73.23
2017-07-12T23:31:54.567Z,82.53
2017-07-12T23:34:25.199Z,81.33
2017-07-12T23:36:54.316Z,66.53
2017-07-12T23:39:23.919Z,106.43
2017-07-12T23:41:53.263Z,67.33
2017-07-12T23:44:22.652Z,91.70
2017-07-12T23:46:52.345Z,86.17
2017-07-12T23:49:23.823Z,84.57
2017-07-12T23:51:52.768Z,98.53
2017-07-12T23:54:22.184Z,93.67
2017-07-12T23:56:52.327Z,90.93
2017-07-12T23:59:21.781Z,71.90
